createdAt,value
2018-04-29T00:01:40.640Z,85.95
2018-04-29T00:04:43.943Z,86.14
2018-04-29T00:07:47.329Z,86.06
2018-04-29T00:10:50.738Z,86.24
2018-04-29T00:13:54.053Z,86.46
2018-04-29T00:16:57.440Z,86.55
2018-04-29T00:20:00.841Z,86.70
2018-04-29T00:23:04.170Z,86.89
2018-04-29T00:26:08.260Z,87.13
2018-04-29T00:29:11.659Z,87.37
2018-04-29T00:32:15.052Z,87.58
2018-04-29T00:35:18.359Z,87.67
2018-04-29T00:38:22.456Z,87.83
2018-04-29T00:41:25.758Z,88.04
2018-04-29T00:44:29.072Z,88.29
2018-04-29T00:47:32.458Z,88.63
2018-04-29T00:50:35.830Z,88.99
2018-04-29T00:53:39.153Z,89.22
2018-04-29T00:56:42.675Z,89.25
2018-04-29T00:59:45.996Z,89.26
2018-04-29T01:02:50.092Z,89.02
2018-04-29T01:05:53.545Z,88.84
2018-04-29T01:08:56.826Z,88.48
2018-04-29T01:12:00.180Z,87.78
2018-04-29T01:15:03.491Z,87.51
2018-04-29T01:18:06.845Z,86.87
2018-04-29T01:21:10.266Z,86.57
2018-04-29T01:24:13.599Z,86.55
2018-04-29T01:27:17.784Z,86.64
2018-04-29T01:30:21.093Z,86.67
2018-04-29T01:33:24.421Z,86.71
2018-04-29T01:36:28.510Z,86.46
2018-04-29T01:39:32.612Z,86.30
2018-04-29T01:42:35.950Z,86.30
2018-04-29T01:45:40.035Z,86.23
2018-04-29T01:48:43.386Z,86.12
2018-04-29T01:51:46.717Z,85.86
2018-04-29T01:54:50.116Z,85.51
2018-04-29T01:57:53.437Z,85.45
2018-04-29T02:00:56.823Z,85.36
2018-04-29T02:04:00.162Z,85.54
2018-04-29T02:07:04.281Z,85.42
2018-04-29T02:10:08.375Z,85.21
2018-04-29T02:13:11.754Z,85.20
2018-04-29T02:16:15.143Z,84.97
2018-04-29T02:19:18.458Z,84.37
2018-04-29T02:22:21.785Z,84.44
2018-04-29T02:25:25.968Z,84.55
2018-04-29T02:28:29.370Z,84.29
2018-04-29T02:31:32.766Z,84.56
2018-04-29T02:34:36.091Z,84.15
2018-04-29T02:37:40.289Z,84.18
2018-04-29T02:40:43.682Z,84.08
2018-04-29T02:43:47.018Z,84.22
2018-04-29T02:46:51.114Z,84.58
2018-04-29T02:49:54.484Z,84.71
2018-04-29T02:52:57.835Z,84.47
2018-04-29T02:56:02.017Z,84.11
2018-04-29T02:59:05.422Z,83.96
2018-04-29T03:02:08.770Z,84.51
2018-04-29T03:05:12.068Z,84.83
2018-04-29T03:08:15.398Z,84.92
2018-04-29T03:11:18.707Z,85.09
2018-04-29T03:14:22.113Z,84.85
2018-04-29T03:17:25.507Z,84.50
2018-04-29T03:20:28.829Z,84.73
2018-04-29T03:23:32.194Z,84.80
2018-04-29T03:26:35.506Z,84.45
2018-04-29T03:29:38.834Z,84.57
2018-04-29T03:32:42.196Z,84.54
2018-04-29T03:35:45.534Z,84.57
2018-04-29T03:38:49.613Z,84.49
2018-04-29T03:41:53.017Z,84.63
2018-04-29T03:44:56.328Z,84.73
2018-04-29T03:47:59.663Z,84.46
2018-04-29T03:51:02.974Z,83.60
2018-04-29T03:54:06.409Z,83.37
2018-04-29T03:57:27.560Z,82.90
2018-04-29T04:01:02.373Z,82.90
2018-04-29T04:04:05.712Z,83.29
2018-04-29T04:07:09.892Z,83.53
2018-04-29T04:10:13.287Z,82.92
2018-04-29T04:13:16.670Z,83.58
2018-04-29T04:16:20.085Z,83.62
2018-04-29T04:19:23.414Z,84.10
2018-04-29T04:22:27.514Z,84.38
2018-04-29T04:25:30.827Z,84.68
2018-04-29T04:28:34.910Z,84.93
2018-04-29T04:31:38.305Z,84.35
2018-04-29T04:34:41.705Z,84.44
2018-04-29T04:37:45.113Z,84.40
2018-04-29T04:40:48.505Z,83.32
2018-04-29T04:43:51.915Z,83.00
2018-04-29T04:46:55.240Z,82.95
2018-04-29T04:49:58.562Z,82.22
2018-04-29T04:53:01.902Z,82.37
2018-04-29T04:56:05.209Z,82.22
2018-04-29T04:59:08.605Z,81.81
2018-04-29T05:02:11.951Z,82.29
2018-04-29T05:05:16.030Z,81.34
2018-04-29T05:08:19.408Z,81.42
2018-04-29T05:11:22.725Z,81.36
2018-04-29T05:14:26.116Z,80.68
2018-04-29T05:17:29.521Z,80.83
2018-04-29T05:20:32.917Z,81.01
2018-04-29T05:23:36.421Z,80.71
2018-04-29T05:26:39.818Z,80.00
2018-04-29T05:29:43.145Z,79.70
2018-04-29T05:32:47.270Z,79.57
2018-04-29T05:35:51.444Z,78.64
2018-04-29T05:38:54.840Z,78.63
2018-04-29T05:41:58.245Z,79.07
2018-04-29T05:45:01.661Z,78.89
2018-04-29T05:48:05.864Z,78.51
2018-04-29T05:51:09.264Z,77.96
2018-04-29T05:54:12.671Z,77.17
2018-04-29T05:57:16.083Z,76.61
2018-04-29T06:00:19.515Z,75.13
2018-04-29T06:03:22.821Z,75.25
2018-04-29T06:06:27.085Z,74.88
2018-04-29T06:09:30.325Z,74.93
2018-04-29T06:12:34.561Z,74.84
2018-04-29T06:15:37.941Z,74.53
2018-04-29T06:18:41.253Z,74.34
2018-04-29T06:21:45.549Z,74.11
2018-04-29T06:24:48.878Z,74.60
2018-04-29T06:27:52.208Z,75.16
2018-04-29T06:30:55.516Z,74.67
2018-04-29T06:33:58.844Z,75.01
2018-04-29T06:37:03.050Z,75.52
2018-04-29T06:40:06.377Z,75.66
2018-04-29T06:43:10.473Z,75.57
2018-04-29T06:46:13.798Z,75.69
2018-04-29T06:49:19.091Z,75.18
2018-04-29T06:52:22.506Z,74.12
2018-04-29T06:55:25.903Z,74.25
2018-04-29T06:58:29.248Z,74.83
2018-04-29T07:01:32.571Z,74.25
2018-04-29T07:04:35.926Z,74.43
2018-04-29T07:07:40.005Z,75.11
2018-04-29T07:10:43.342Z,75.11
2018-04-29T07:13:47.539Z,74.55
2018-04-29T07:16:50.933Z,73.75
2018-04-29T07:19:54.292Z,72.62
2018-04-29T07:22:58.388Z,72.19
2018-04-29T07:26:01.786Z,71.80
2018-04-29T07:29:05.172Z,71.57
2018-04-29T07:32:09.264Z,70.76
2018-04-29T07:35:12.665Z,70.30
2018-04-29T07:38:16.015Z,70.50
2018-04-29T07:41:19.371Z,70.19
2018-04-29T07:44:22.704Z,69.63
2018-04-29T07:47:26.148Z,68.60
2018-04-29T07:50:29.496Z,68.01
2018-04-29T07:53:33.682Z,68.78
2018-04-29T07:56:36.998Z,68.37
2018-04-29T07:59:41.510Z,67.52
2018-04-29T08:02:45.625Z,65.13
2018-04-29T08:05:50.540Z,65.19
2018-04-29T08:08:53.859Z,65.66
2018-04-29T08:11:58.609Z,65.00
2018-04-29T08:15:02.714Z,64.92
2018-04-29T08:18:06.087Z,65.07
2018-04-29T08:21:09.481Z,63.52
2018-04-29T08:24:12.842Z,63.24
2018-04-29T08:27:16.161Z,62.63
2018-04-29T08:30:19.499Z,60.88
2018-04-29T08:33:22.877Z,61.00
2018-04-29T08:36:26.285Z,61.20
2018-04-29T08:39:29.594Z,62.40
2018-04-29T08:42:33.005Z,63.62
2018-04-29T08:45:37.193Z,64.28
2018-04-29T08:48:40.615Z,65.68
2018-04-29T08:51:43.938Z,64.38
2018-04-29T08:54:48.106Z,63.15
2018-04-29T08:57:52.133Z,61.34
2018-04-29T09:00:55.486Z,61.12
2018-04-29T09:03:58.902Z,59.95
2018-04-29T09:07:02.231Z,60.95
2018-04-29T09:10:05.636Z,62.30
2018-04-29T09:13:09.049Z,62.31
2018-04-29T09:16:12.435Z,61.05
2018-04-29T09:19:15.781Z,61.20
2018-04-29T09:22:19.149Z,59.09
2018-04-29T09:25:22.511Z,59.50
2018-04-29T09:28:25.825Z,60.34
2018-04-29T09:31:29.248Z,62.54
2018-04-29T09:34:32.603Z,62.31
2018-04-29T09:37:35.953Z,61.58
2018-04-29T09:40:39.281Z,60.25
2018-04-29T09:43:42.662Z,58.80
2018-04-29T09:46:46.025Z,59.57
2018-04-29T09:49:49.371Z,60.06
2018-04-29T09:52:52.703Z,60.34
2018-04-29T09:55:56.123Z,59.53
2018-04-29T09:58:59.441Z,59.22
2018-04-29T10:02:02.803Z,60.05
2018-04-29T10:05:06.126Z,59.87
2018-04-29T10:08:09.498Z,60.62
2018-04-29T10:11:12.817Z,61.12
2018-04-29T10:14:16.156Z,61.09
2018-04-29T10:17:20.238Z,62.28
2018-04-29T10:20:23.620Z,62.38
2018-04-29T10:23:27.034Z,62.67
2018-04-29T10:26:31.956Z,61.48
2018-04-29T10:29:35.260Z,61.05
2018-04-29T10:32:40.239Z,60.12
2018-04-29T10:35:43.485Z,60.38
2018-04-29T10:38:46.847Z,60.64
2018-04-29T10:41:50.904Z,61.13
2018-04-29T10:44:54.298Z,61.28
2018-04-29T10:47:57.604Z,61.59
2018-04-29T10:51:00.949Z,62.10
2018-04-29T10:54:05.021Z,61.58
2018-04-29T10:57:08.365Z,61.00
2018-04-29T11:00:12.445Z,60.60
2018-04-29T11:03:15.845Z,60.97
2018-04-29T11:06:19.232Z,60.23
2018-04-29T11:09:22.626Z,61.45
2018-04-29T11:12:25.948Z,61.81
2018-04-29T11:15:29.285Z,62.34
2018-04-29T11:18:32.636Z,62.63
2018-04-29T11:21:35.989Z,63.47
2018-04-29T11:24:39.418Z,64.63
2018-04-29T11:27:42.834Z,65.04
2018-04-29T11:30:46.154Z,65.16
2018-04-29T11:33:50.429Z,65.28
2018-04-29T11:36:53.904Z,65.66
2018-04-29T11:39:57.245Z,65.51
2018-04-29T11:43:00.566Z,65.86
2018-04-29T11:46:03.948Z,66.00
2018-04-29T11:49:07.350Z,66.58
2018-04-29T11:52:10.747Z,66.39
2018-04-29T11:55:14.091Z,66.20
2018-04-29T11:58:18.270Z,65.17
2018-04-29T12:01:21.705Z,64.54
2018-04-29T12:04:25.827Z,64.12
2018-04-29T12:07:29.172Z,63.15
2018-04-29T12:10:32.586Z,62.97
2018-04-29T12:13:35.912Z,63.03
2018-04-29T12:16:40.220Z,62.41
2018-04-29T12:19:43.585Z,60.72
2018-04-29T12:22:47.137Z,60.84
2018-04-29T12:25:51.246Z,61.90
2018-04-29T12:28:54.581Z,60.13
2018-04-29T12:31:57.914Z,59.97
2018-04-29T12:35:01.346Z,60.25
2018-04-29T12:38:04.672Z,59.93
2018-04-29T12:41:08.117Z,60.82
2018-04-29T12:44:11.568Z,61.09
2018-04-29T12:47:14.931Z,60.80
2018-04-29T12:50:18.315Z,61.24
2018-04-29T12:53:21.652Z,63.16
2018-04-29T12:56:25.743Z,64.60
2018-04-29T12:59:30.614Z,65.25
2018-04-29T13:02:33.948Z,66.12
2018-04-29T13:05:37.394Z,65.74
2018-04-29T13:08:41.469Z,66.63
2018-04-29T13:11:44.874Z,66.56
2018-04-29T13:14:48.189Z,67.48
2018-04-29T13:17:51.589Z,68.13
2018-04-29T13:20:54.937Z,68.25
2018-04-29T13:23:58.287Z,68.27
2018-04-29T13:27:01.625Z,68.60
2018-04-29T13:30:05.738Z,69.06
2018-04-29T13:33:09.829Z,69.38
2018-04-29T13:36:13.205Z,70.44
2018-04-29T13:39:16.522Z,71.55
2018-04-29T13:42:20.029Z,71.62
2018-04-29T13:45:23.308Z,72.50
2018-04-29T13:48:26.718Z,72.44
2018-04-29T13:51:30.029Z,72.93
2018-04-29T13:54:34.211Z,73.49
2018-04-29T13:57:37.626Z,73.41
2018-04-29T14:00:42.531Z,72.92
2018-04-29T14:03:45.853Z,73.45
2018-04-29T14:06:49.192Z,74.02
2018-04-29T14:09:53.291Z,74.51
2018-04-29T14:12:56.658Z,74.85
2018-04-29T14:15:59.985Z,75.95
2018-04-29T14:19:03.320Z,77.00
2018-04-29T14:22:06.692Z,77.82
2018-04-29T14:25:10.808Z,78.21
2018-04-29T14:28:14.176Z,78.24
2018-04-29T14:31:17.605Z,78.72
2018-04-29T14:34:20.888Z,78.75
2018-04-29T14:37:24.294Z,78.53
2018-04-29T14:40:27.646Z,77.93
2018-04-29T14:43:31.014Z,76.79
2018-04-29T14:46:35.098Z,77.16
2018-04-29T14:49:38.518Z,77.70
2018-04-29T14:52:42.610Z,76.54
2018-04-29T14:55:46.014Z,76.22
2018-04-29T14:58:49.407Z,76.19
2018-04-29T15:01:52.813Z,75.74
2018-04-29T15:04:56.272Z,74.00
2018-04-29T15:08:00.003Z,74.67
2018-04-29T15:11:04.500Z,75.59
2018-04-29T15:14:07.957Z,75.29
2018-04-29T15:17:11.637Z,75.41
2018-04-29T15:20:15.208Z,75.29
2018-04-29T15:23:18.915Z,75.36
2018-04-29T15:26:22.329Z,76.22
2018-04-29T15:29:25.987Z,76.94
2018-04-29T15:32:30.095Z,77.00
2018-04-29T15:35:33.487Z,77.53
2018-04-29T15:38:36.899Z,77.51
2018-04-29T15:41:40.286Z,77.92
2018-04-29T15:44:43.692Z,78.74
2018-04-29T15:47:47.011Z,79.67
2018-04-29T15:50:51.132Z,80.47
2018-04-29T15:53:55.226Z,81.17
2018-04-29T15:56:58.578Z,81.92
2018-04-29T16:00:01.922Z,82.34
2018-04-29T16:03:05.271Z,82.41
2018-04-29T16:06:08.635Z,82.40
2018-04-29T16:09:11.962Z,81.80
2018-04-29T16:12:15.303Z,82.10
2018-04-29T16:15:18.641Z,82.50
2018-04-29T16:18:22.838Z,82.83
2018-04-29T16:21:26.200Z,83.17
2018-04-29T16:24:29.621Z,83.46
2018-04-29T16:27:32.956Z,82.71
2018-04-29T16:30:37.157Z,83.25
2018-04-29T16:33:40.469Z,83.36
2018-04-29T16:36:44.576Z,83.89
2018-04-29T16:39:47.911Z,83.83
2018-04-29T16:42:51.277Z,83.54
2018-04-29T16:45:55.422Z,83.31
2018-04-29T16:48:58.880Z,83.61
2018-04-29T16:52:02.235Z,84.04
2018-04-29T16:55:05.587Z,83.88
2018-04-29T16:58:08.984Z,84.08
2018-04-29T17:01:12.365Z,83.83
2018-04-29T17:04:15.673Z,84.06
2018-04-29T17:07:19.024Z,84.02
2018-04-29T17:10:22.367Z,82.78
2018-04-29T17:13:25.799Z,82.59
2018-04-29T17:16:29.987Z,83.10
2018-04-29T17:19:33.304Z,83.48
2018-04-29T17:22:36.665Z,84.13
2018-04-29T17:25:40.003Z,83.21
2018-04-29T17:28:43.398Z,82.04
2018-04-29T17:31:46.886Z,81.28
2018-04-29T17:34:50.302Z,80.23
2018-04-29T17:37:53.639Z,79.98
2018-04-29T17:40:56.994Z,80.37
2018-04-29T17:44:01.211Z,80.07
2018-04-29T17:47:04.550Z,80.04
2018-04-29T17:50:08.010Z,79.93
2018-04-29T17:53:11.408Z,79.68
2018-04-29T17:56:14.758Z,79.68
2018-04-29T17:59:18.103Z,80.06
2018-04-29T18:02:21.496Z,80.63
2018-04-29T18:05:24.930Z,81.12
2018-04-29T18:08:29.142Z,79.90
2018-04-29T18:11:33.262Z,79.45
2018-04-29T18:14:37.454Z,79.74
2018-04-29T18:17:40.910Z,79.17
2018-04-29T18:20:44.348Z,78.92
2018-04-29T18:23:47.673Z,78.86
2018-04-29T18:26:51.246Z,78.49
2018-04-29T18:29:54.593Z,79.08
2018-04-29T18:32:58.685Z,79.61
2018-04-29T18:36:02.893Z,80.18
2018-04-29T18:39:06.317Z,80.15
2018-04-29T18:42:09.681Z,80.00
2018-04-29T18:45:13.110Z,78.93
2018-04-29T18:48:16.515Z,77.11
2018-04-29T18:51:19.972Z,76.58
2018-04-29T18:54:23.383Z,76.28
2018-04-29T18:57:26.742Z,76.17
2018-04-29T19:00:30.085Z,75.99
2018-04-29T19:03:33.426Z,75.81
2018-04-29T19:06:37.933Z,76.11
2018-04-29T19:09:41.274Z,75.32
2018-04-29T19:12:44.608Z,75.87
2018-04-29T19:15:48.017Z,75.32
2018-04-29T19:18:51.355Z,74.90
2018-04-29T19:21:55.525Z,74.83
2018-04-29T19:24:58.850Z,74.68
2018-04-29T19:28:04.384Z,74.60
2018-04-29T19:31:07.771Z,74.52
2018-04-29T19:34:11.231Z,75.14
2018-04-29T19:37:14.676Z,75.18
2018-04-29T19:40:19.228Z,74.35
2018-04-29T19:43:23.336Z,74.00
2018-04-29T19:46:26.699Z,74.30
2018-04-29T19:49:30.053Z,74.53
2018-04-29T19:52:34.166Z,74.17
2018-04-29T19:55:38.309Z,74.09
2018-04-29T19:58:41.643Z,73.79
2018-04-29T20:01:44.995Z,74.19
2018-04-29T20:04:49.144Z,73.91
2018-04-29T20:07:53.222Z,74.07
2018-04-29T20:10:56.706Z,74.10
2018-04-29T20:14:00.551Z,73.54
2018-04-29T20:17:03.880Z,73.25
2018-04-29T20:20:07.296Z,73.43
2018-04-29T20:23:10.630Z,73.29
2018-04-29T20:26:14.214Z,74.08
2018-04-29T20:29:17.602Z,73.09
2018-04-29T20:32:38.584Z,72.86
2018-04-29T20:35:42.027Z,72.48
2018-04-29T20:38:45.332Z,72.65
2018-04-29T20:41:48.657Z,72.73
2018-04-29T20:44:52.835Z,72.73
2018-04-29T20:47:56.223Z,72.22
2018-04-29T20:50:59.809Z,72.09
2018-04-29T20:54:03.281Z,72.56
2018-04-29T20:57:06.624Z,72.44
2018-04-29T21:00:10.076Z,72.41
2018-04-29T21:03:14.240Z,72.42
2018-04-29T21:06:17.587Z,72.40
2018-04-29T21:09:21.680Z,72.48
2018-04-29T21:12:25.019Z,72.74
2018-04-29T21:15:28.324Z,72.66
2018-04-29T21:18:31.659Z,72.79
2018-04-29T21:21:35.128Z,73.04
2018-04-29T21:24:38.450Z,72.90
2018-04-29T21:27:41.777Z,73.18
2018-04-29T21:30:45.149Z,73.50
2018-04-29T21:33:48.568Z,73.69
2018-04-29T21:36:51.986Z,73.60
2018-04-29T21:39:56.171Z,73.68
2018-04-29T21:42:59.568Z,74.18
2018-04-29T21:46:02.981Z,74.28
2018-04-29T21:49:06.310Z,74.75
2018-04-29T21:52:10.414Z,75.24
2018-04-29T21:55:13.732Z,75.02
2018-04-29T21:58:17.906Z,75.48
2018-04-29T22:01:21.224Z,75.70
2018-04-29T22:04:26.200Z,76.15
2018-04-29T22:07:29.524Z,76.21
2018-04-29T22:10:32.862Z,76.54
2018-04-29T22:13:36.190Z,76.68
2018-04-29T22:16:39.538Z,77.04
2018-04-29T22:19:42.848Z,77.24
2018-04-29T22:22:46.217Z,76.78
2018-04-29T22:25:49.520Z,77.03
2018-04-29T22:28:52.851Z,76.88
2018-04-29T22:31:56.179Z,77.16
2018-04-29T22:34:59.500Z,76.68
2018-04-29T22:38:02.816Z,76.52
2018-04-29T22:41:06.159Z,76.80
2018-04-29T22:44:10.393Z,76.53
2018-04-29T22:47:13.722Z,76.45
2018-04-29T22:50:17.148Z,76.17
2018-04-29T22:53:20.481Z,76.20
2018-04-29T22:56:24.579Z,75.20
2018-04-29T22:59:28.110Z,75.48
2018-04-29T23:02:31.548Z,75.07
2018-04-29T23:05:34.845Z,74.88
2018-04-29T23:08:38.152Z,75.27
2018-04-29T23:11:41.473Z,74.53
2018-04-29T23:14:44.803Z,74.87
2018-04-29T23:17:48.252Z,74.48
2018-04-29T23:20:51.643Z,74.77
2018-04-29T23:23:55.033Z,74.37
2018-04-29T23:26:58.360Z,73.89
2018-04-29T23:30:01.753Z,74.05
2018-04-29T23:33:05.078Z,73.84
2018-04-29T23:36:09.182Z,74.09
2018-04-29T23:39:12.549Z,74.11
2018-04-29T23:42:16.044Z,74.30
2018-04-29T23:45:19.357Z,74.23
2018-04-29T23:48:22.757Z,73.92
2018-04-29T23:51:26.161Z,73.12
2018-04-29T23:54:29.553Z,72.97
2018-04-29T23:57:32.869Z,72.49
